sensor_id;sensor_type;location;lat;lon;timestamp;pressure;altitude;pressure_sealevel;temperature;humidity
13593;BME280;6867;50.998;4.250;2022-12-05T00:00:09;101411.59;;;5.09;73.76
13593;BME280;6867;50.998;4.250;2022-12-05T00:02:35;101398.16;;;5.11;72.82
13593;BME280;6867;50.998;4.250;2022-12-05T00:05:02;101398.03;;;4.94;73.86
13593;BME280;6867;50.998;4.250;2022-12-05T00:07:30;101415.44;;;4.89;73.66
13593;BME280;6867;50.998;4.250;2022-12-05T00:09:57;101415.69;;;4.95;74.08
13593;BME280;6867;50.998;4.250;2022-12-05T00:12:24;101410.94;;;5.07;73.57
13593;BME280;6867;50.998;4.250;2022-12-05T00:14:51;101412.34;;;4.93;73.78
13593;BME280;6867;50.998;4.250;2022-12-05T00:17:18;101411.53;;;5.01;73.95
13593;BME280;6867;50.998;4.250;2022-12-05T00:19:44;101417.59;;;4.85;73.93
13593;BME280;6867;50.998;4.250;2022-12-05T00:22:11;101421.09;;;4.86;74.57
13593;BME280;6867;50.998;4.250;2022-12-05T00:24:39;101417.56;;;5.03;74.29
13593;BME280;6867;50.998;4.250;2022-12-05T00:27:06;101416.78;;;5.11;74.24
13593;BME280;6867;50.998;4.250;2022-12-05T00:29:32;101418.19;;;4.97;74.52
13593;BME280;6867;50.998;4.250;2022-12-05T00:31:59;101415.28;;;5.08;74.44
13593;BME280;6867;50.998;4.250;2022-12-05T00:34:26;101411.13;;;4.88;74.05
13593;BME280;6867;50.998;4.250;2022-12-05T00:36:52;101418.41;;;5.04;74.25
13593;BME280;6867;50.998;4.250;2022-12-05T00:39:19;101411.88;;;4.98;74.30
13593;BME280;6867;50.998;4.250;2022-12-05T00:41:47;101418.50;;;4.94;74.27
13593;BME280;6867;50.998;4.250;2022-12-05T00:44:14;101421.00;;;4.95;74.20
13593;BME280;6867;50.998;4.250;2022-12-05T00:46:41;101418.88;;;4.99;74.92
13593;BME280;6867;50.998;4.250;2022-12-05T00:49:09;101425.78;;;4.92;74.31
13593;BME280;6867;50.998;4.250;2022-12-05T00:51:37;101426.00;;;4.72;74.78
13593;BME280;6867;50.998;4.250;2022-12-05T00:54:05;101427.78;;;4.90;75.49
13593;BME280;6867;50.998;4.250;2022-12-05T00:56:33;101433.59;;;4.85;75.39
13593;BME280;6867;50.998;4.250;2022-12-05T00:59:01;101443.00;;;4.97;75.38
13593;BME280;6867;50.998;4.250;2022-12-05T01:01:31;101432.66;;;4.94;75.85
13593;BME280;6867;50.998;4.250;2022-12-05T01:04:01;101434.47;;;4.94;75.13
13593;BME280;6867;50.998;4.250;2022-12-05T01:06:28;101429.56;;;4.81;75.22
13593;BME280;6867;50.998;4.250;2022-12-05T01:08:56;101436.06;;;4.87;75.91
13593;BME280;6867;50.998;4.250;2022-12-05T01:11:25;101450.06;;;4.89;76.19
13593;BME280;6867;50.998;4.250;2022-12-05T01:13:52;101443.91;;;4.88;75.98
13593;BME280;6867;50.998;4.250;2022-12-05T01:16:22;101452.59;;;4.90;75.73
13593;BME280;6867;50.998;4.250;2022-12-05T01:18:50;101453.25;;;4.92;76.45
13593;BME280;6867;50.998;4.250;2022-12-05T01:21:17;101446.50;;;4.98;76.49
13593;BME280;6867;50.998;4.250;2022-12-05T01:23:44;101438.34;;;4.99;75.54
13593;BME280;6867;50.998;4.250;2022-12-05T01:26:12;101439.63;;;4.95;75.71
13593;BME280;6867;50.998;4.250;2022-12-05T01:28:39;101443.31;;;4.94;75.97
13593;BME280;6867;50.998;4.250;2022-12-05T01:31:19;101452.59;;;4.90;76.08
13593;BME280;6867;50.998;4.250;2022-12-05T01:33:49;101460.28;;;4.93;76.79
13593;BME280;6867;50.998;4.250;2022-12-05T01:36:17;101463.06;;;4.92;76.50
13593;BME280;6867;50.998;4.250;2022-12-05T01:38:44;101471.13;;;5.00;76.36
13593;BME280;6867;50.998;4.250;2022-12-05T01:41:14;101464.13;;;4.99;76.35
13593;BME280;6867;50.998;4.250;2022-12-05T01:43:55;101463.66;;;5.04;75.98
13593;BME280;6867;50.998;4.250;2022-12-05T01:46:22;101460.47;;;5.00;76.06
13593;BME280;6867;50.998;4.250;2022-12-05T01:48:52;101451.66;;;4.99;75.87
13593;BME280;6867;50.998;4.250;2022-12-05T01:51:22;101453.47;;;4.99;76.60
13593;BME280;6867;50.998;4.250;2022-12-05T01:53:48;101468.09;;;4.95;76.17
13593;BME280;6867;50.998;4.250;2022-12-05T01:56:15;101461.31;;;5.00;76.37
13593;BME280;6867;50.998;4.250;2022-12-05T01:58:43;101470.97;;;5.02;76.25
13593;BME280;6867;50.998;4.250;2022-12-05T02:01:12;101477.22;;;5.10;76.35
13593;BME280;6867;50.998;4.250;2022-12-05T02:03:40;101481.00;;;5.08;76.68
13593;BME280;6867;50.998;4.250;2022-12-05T02:06:10;101478.25;;;5.17;76.48
13593;BME280;6867;50.998;4.250;2022-12-05T02:08:39;101479.41;;;5.15;76.89
13593;BME280;6867;50.998;4.250;2022-12-05T02:11:07;101479.66;;;5.04;76.92
13593;BME280;6867;50.998;4.250;2022-12-05T02:13:48;101486.34;;;5.08;76.52
13593;BME280;6867;50.998;4.250;2022-12-05T02:16:23;101477.94;;;5.20;77.13
13593;BME280;6867;50.998;4.250;2022-12-05T02:19:03;101476.06;;;5.13;76.93
13593;BME280;6867;50.998;4.250;2022-12-05T02:21:49;101475.06;;;5.14;76.49
13593;BME280;6867;50.998;4.250;2022-12-05T02:24:41;101477.66;;;5.06;76.84
13593;BME280;6867;50.998;4.250;2022-12-05T02:27:30;101483.22;;;5.12;76.85
13593;BME280;6867;50.998;4.250;2022-12-05T02:30:05;101472.38;;;5.14;76.29
13593;BME280;6867;50.998;4.250;2022-12-05T02:32:49;101469.78;;;5.22;76.95
13593;BME280;6867;50.998;4.250;2022-12-05T02:35:26;101466.22;;;5.31;76.21
13593;BME280;6867;50.998;4.250;2022-12-05T02:38:03;101465.63;;;5.19;77.25
13593;BME280;6867;50.998;4.250;2022-12-05T02:40:40;101466.81;;;5.25;77.41
13593;BME280;6867;50.998;4.250;2022-12-05T02:43:12;101463.09;;;5.18;77.24
13593;BME280;6867;50.998;4.250;2022-12-05T02:45:44;101478.41;;;5.16;77.54
13593;BME280;6867;50.998;4.250;2022-12-05T02:48:14;101477.47;;;5.25;77.55
13593;BME280;6867;50.998;4.250;2022-12-05T02:50:43;101480.78;;;5.19;77.32
13593;BME280;6867;50.998;4.250;2022-12-05T02:53:14;101478.13;;;5.19;77.67
13593;BME280;6867;50.998;4.250;2022-12-05T02:55:44;101482.97;;;5.23;77.11
13593;BME280;6867;50.998;4.250;2022-12-05T02:58:18;101480.50;;;5.30;77.18
13593;BME280;6867;50.998;4.250;2022-12-05T03:00:49;101478.00;;;5.29;77.36
13593;BME280;6867;50.998;4.250;2022-12-05T03:03:20;101474.16;;;5.23;77.05
13593;BME280;6867;50.998;4.250;2022-12-05T03:05:51;101476.75;;;5.15;77.54
13593;BME280;6867;50.998;4.250;2022-12-05T03:08:24;101475.34;;;5.29;77.88
13593;BME280;6867;50.998;4.250;2022-12-05T03:10:54;101477.16;;;5.28;77.44
13593;BME280;6867;50.998;4.250;2022-12-05T03:13:25;101477.94;;;5.20;77.94
13593;BME280;6867;50.998;4.250;2022-12-05T03:15:56;101480.44;;;5.22;77.74
13593;BME280;6867;50.998;4.250;2022-12-05T03:18:27;101469.78;;;5.22;77.88
13593;BME280;6867;50.998;4.250;2022-12-05T03:20:59;101464.47;;;5.22;77.47
13593;BME280;6867;50.998;4.250;2022-12-05T03:23:30;101472.78;;;5.01;78.33
13593;BME280;6867;50.998;4.250;2022-12-05T03:26:04;101470.34;;;5.08;77.64
13593;BME280;6867;50.998;4.250;2022-12-05T03:28:46;101473.59;;;4.93;77.91
13593;BME280;6867;50.998;4.250;2022-12-05T03:31:20;101483.25;;;4.94;78.06
13593;BME280;6867;50.998;4.250;2022-12-05T03:33:54;101481.78;;;5.00;77.80
13593;BME280;6867;50.998;4.250;2022-12-05T03:36:27;101468.28;;;5.02;78.14
13593;BME280;6867;50.998;4.250;2022-12-05T03:39:02;101465.72;;;4.92;77.80
13593;BME280;6867;50.998;4.250;2022-12-05T03:41:36;101459.50;;;4.83;78.58
13593;BME280;6867;50.998;4.250;2022-12-05T03:44:08;101467.22;;;4.68;78.77
13593;BME280;6867;50.998;4.250;2022-12-05T03:46:43;101475.78;;;4.80;79.12
13593;BME280;6867;50.998;4.250;2022-12-05T03:49:17;101470.38;;;4.90;78.33
13593;BME280;6867;50.998;4.250;2022-12-05T03:51:51;101471.53;;;4.87;78.49
13593;BME280;6867;50.998;4.250;2022-12-05T03:54:22;101463.03;;;5.10;77.93
13593;BME280;6867;50.998;4.250;2022-12-05T03:56:54;101449.00;;;5.25;77.66
13593;BME280;6867;50.998;4.250;2022-12-05T03:59:29;101452.50;;;5.26;77.31
13593;BME280;6867;50.998;4.250;2022-12-05T04:02:02;101447.44;;;5.15;76.93
13593;BME280;6867;50.998;4.250;2022-12-05T04:04:33;101459.06;;;5.14;77.57
13593;BME280;6867;50.998;4.250;2022-12-05T04:07:04;101455.50;;;5.23;76.79
13593;BME280;6867;50.998;4.250;2022-12-05T04:09:36;101459.47;;;5.19;76.78
13593;BME280;6867;50.998;4.250;2022-12-05T04:12:07;101454.66;;;5.22;76.96
13593;BME280;6867;50.998;4.250;2022-12-05T04:14:40;101459.31;;;5.20;76.82
13593;BME280;6867;50.998;4.250;2022-12-05T04:17:13;101464.84;;;5.27;76.73
13593;BME280;6867;50.998;4.250;2022-12-05T04:19:44;101466.34;;;5.30;77.05
13593;BME280;6867;50.998;4.250;2022-12-05T04:22:30;101463.25;;;5.42;77.43
13593;BME280;6867;50.998;4.250;2022-12-05T04:24:58;101457.53;;;5.29;77.34
13593;BME280;6867;50.998;4.250;2022-12-05T04:27:50;101460.59;;;5.42;77.21
13593;BME280;6867;50.998;4.250;2022-12-05T04:30:21;101462.78;;;5.47;76.69
13593;BME280;6867;50.998;4.250;2022-12-05T04:32:55;101463.56;;;5.31;76.66
13593;BME280;6867;50.998;4.250;2022-12-05T04:35:28;101460.72;;;5.33;77.03
13593;BME280;6867;50.998;4.250;2022-12-05T04:37:59;101460.06;;;5.39;77.39
13593;BME280;6867;50.998;4.250;2022-12-05T04:40:32;101465.09;;;5.42;77.42
13593;BME280;6867;50.998;4.250;2022-12-05T04:43:01;101472.84;;;5.53;76.86
13593;BME280;6867;50.998;4.250;2022-12-05T04:45:29;101470.53;;;5.58;77.00
13593;BME280;6867;50.998;4.250;2022-12-05T04:48:00;101471.41;;;5.67;76.50
13593;BME280;6867;50.998;4.250;2022-12-05T04:50:31;101468.09;;;5.65;76.84
13593;BME280;6867;50.998;4.250;2022-12-05T04:53:00;101471.06;;;5.62;76.19
13593;BME280;6867;50.998;4.250;2022-12-05T04:55:30;101474.13;;;5.75;76.61
13593;BME280;6867;50.998;4.250;2022-12-05T04:58:04;101468.78;;;5.75;75.94
13593;BME280;6867;50.998;4.250;2022-12-05T05:00:36;101480.81;;;5.79;76.08
13593;BME280;6867;50.998;4.250;2022-12-05T05:03:10;101485.66;;;5.84;76.09
13593;BME280;6867;50.998;4.250;2022-12-05T05:05:39;101464.16;;;5.77;75.93
13593;BME280;6867;50.998;4.250;2022-12-05T05:08:16;101472.16;;;5.77;76.11
13593;BME280;6867;50.998;4.250;2022-12-05T05:10:51;101475.59;;;5.69;76.14
13593;BME280;6867;50.998;4.250;2022-12-05T05:13:20;101478.94;;;5.71;75.94
13593;BME280;6867;50.998;4.250;2022-12-05T05:15:47;101492.78;;;5.75;76.52
13593;BME280;6867;50.998;4.250;2022-12-05T05:18:15;101489.13;;;5.76;76.19
13593;BME280;6867;50.998;4.250;2022-12-05T05:20:41;101490.81;;;5.77;76.51
13593;BME280;6867;50.998;4.250;2022-12-05T05:23:08;101491.16;;;5.82;75.78
13593;BME280;6867;50.998;4.250;2022-12-05T05:25:35;101490.41;;;5.72;76.46
13593;BME280;6867;50.998;4.250;2022-12-05T05:28:01;101504.09;;;5.69;76.75
13593;BME280;6867;50.998;4.250;2022-12-05T05:30:28;101506.91;;;5.67;76.32
13593;BME280;6867;50.998;4.250;2022-12-05T05:32:55;101509.56;;;5.67;76.29
13593;BME280;6867;50.998;4.250;2022-12-05T05:35:23;101509.44;;;5.69;76.51
13593;BME280;6867;50.998;4.250;2022-12-05T05:37:49;101515.72;;;5.68;76.85
13593;BME280;6867;50.998;4.250;2022-12-05T05:40:16;101512.69;;;5.63;76.28
13593;BME280;6867;50.998;4.250;2022-12-05T05:42:44;101516.41;;;5.70;76.90
13593;BME280;6867;50.998;4.250;2022-12-05T05:45:11;101513.88;;;5.60;77.03
13593;BME280;6867;50.998;4.250;2022-12-05T05:47:38;101520.66;;;5.55;76.76
13593;BME280;6867;50.998;4.250;2022-12-05T05:50:06;101517.38;;;5.61;76.78
13593;BME280;6867;50.998;4.250;2022-12-05T05:52:35;101520.69;;;5.63;77.28
13593;BME280;6867;50.998;4.250;2022-12-05T05:55:04;101515.88;;;5.66;77.15
13593;BME280;6867;50.998;4.250;2022-12-05T05:57:31;101517.56;;;5.67;77.29
13593;BME280;6867;50.998;4.250;2022-12-05T05:59:58;101518.38;;;5.68;77.14
13593;BME280;6867;50.998;4.250;2022-12-05T06:02:24;101527.09;;;5.70;77.02
13593;BME280;6867;50.998;4.250;2022-12-05T06:04:51;101531.06;;;5.66;77.57
13593;BME280;6867;50.998;4.250;2022-12-05T06:07:18;101533.03;;;5.64;77.08
13593;BME280;6867;50.998;4.250;2022-12-05T06:09:46;101540.06;;;5.65;77.74
13593;BME280;6867;50.998;4.250;2022-12-05T06:12:12;101537.22;;;5.66;77.16
13593;BME280;6867;50.998;4.250;2022-12-05T06:14:39;101536.94;;;5.52;78.13
13593;BME280;6867;50.998;4.250;2022-12-05T06:17:05;101546.81;;;5.59;77.81
13593;BME280;6867;50.998;4.250;2022-12-05T06:19:32;101556.66;;;5.59;77.81
13593;BME280;6867;50.998;4.250;2022-12-05T06:21:59;101548.34;;;5.62;77.41
13593;BME280;6867;50.998;4.250;2022-12-05T06:24:25;101551.38;;;5.67;77.69
13593;BME280;6867;50.998;4.250;2022-12-05T06:26:53;101549.13;;;5.80;77.77
13593;BME280;6867;50.998;4.250;2022-12-05T06:29:21;101548.81;;;5.57;77.29
13593;BME280;6867;50.998;4.250;2022-12-05T06:31:47;101551.22;;;5.68;77.47
13593;BME280;6867;50.998;4.250;2022-12-05T06:34:14;101546.03;;;5.67;78.29
13593;BME280;6867;50.998;4.250;2022-12-05T06:36:41;101550.25;;;5.69;78.04
13593;BME280;6867;50.998;4.250;2022-12-05T06:39:08;101542.91;;;5.71;77.72
13593;BME280;6867;50.998;4.250;2022-12-05T06:41:34;101548.47;;;5.78;77.33
13593;BME280;6867;50.998;4.250;2022-12-05T06:44:03;101543.38;;;5.67;78.08
13593;BME280;6867;50.998;4.250;2022-12-05T06:46:29;101550.75;;;5.73;77.51
13593;BME280;6867;50.998;4.250;2022-12-05T06:48:57;101558.13;;;5.79;78.00
13593;BME280;6867;50.998;4.250;2022-12-05T06:51:24;101550.28;;;5.78;77.44
13593;BME280;6867;50.998;4.250;2022-12-05T06:53:51;101563.97;;;5.83;77.55
13593;BME280;6867;50.998;4.250;2022-12-05T06:56:18;101557.34;;;5.87;77.87
13593;BME280;6867;50.998;4.250;2022-12-05T06:58:47;101561.09;;;5.94;78.17
13593;BME280;6867;50.998;4.250;2022-12-05T07:01:16;101565.88;;;5.90;77.52
13593;BME280;6867;50.998;4.250;2022-12-05T07:04:01;101569.28;;;6.01;77.45
13593;BME280;6867;50.998;4.250;2022-12-05T07:06:28;101573.44;;;5.95;77.51
13593;BME280;6867;50.998;4.250;2022-12-05T07:08:55;101570.19;;;5.91;77.47
13593;BME280;6867;50.998;4.250;2022-12-05T07:11:22;101569.09;;;5.94;77.14
13593;BME280;6867;50.998;4.250;2022-12-05T07:13:48;101575.91;;;5.96;77.57
13593;BME280;6867;50.998;4.250;2022-12-05T07:16:16;101568.09;;;5.95;77.35
13593;BME280;6867;50.998;4.250;2022-12-05T07:18:43;101573.44;;;5.95;77.47
13593;BME280;6867;50.998;4.250;2022-12-05T07:21:12;101582.09;;;5.97;77.89
13593;BME280;6867;50.998;4.250;2022-12-05T07:23:40;101586.16;;;6.09;77.44
13593;BME280;6867;50.998;4.250;2022-12-05T07:26:08;101590.34;;;6.12;77.49
13593;BME280;6867;50.998;4.250;2022-12-05T07:28:35;101587.69;;;6.12;77.68
13593;BME280;6867;50.998;4.250;2022-12-05T07:31:03;101596.84;;;6.09;78.14
13593;BME280;6867;50.998;4.250;2022-12-05T07:33:32;101598.53;;;6.18;77.92
13593;BME280;6867;50.998;4.250;2022-12-05T07:35:59;101610.13;;;6.27;78.12
13593;BME280;6867;50.998;4.250;2022-12-05T07:38:26;101608.44;;;6.26;77.74
13593;BME280;6867;50.998;4.250;2022-12-05T07:40:53;101606.16;;;6.31;77.89
13593;BME280;6867;50.998;4.250;2022-12-05T07:43:20;101607.59;;;6.26;77.97
13593;BME280;6867;50.998;4.250;2022-12-05T07:45:47;101601.13;;;6.28;78.37
13593;BME280;6867;50.998;4.250;2022-12-05T07:48:14;101600.25;;;6.19;77.96
13593;BME280;6867;50.998;4.250;2022-12-05T07:50:42;101602.53;;;6.14;77.50
13593;BME280;6867;50.998;4.250;2022-12-05T07:53:09;101610.53;;;6.14;77.55
13593;BME280;6867;50.998;4.250;2022-12-05T07:55:36;101621.72;;;6.18;77.71
13593;BME280;6867;50.998;4.250;2022-12-05T07:58:03;101625.44;;;6.25;77.99
13593;BME280;6867;50.998;4.250;2022-12-05T08:00:29;101626.56;;;6.22;78.06
13593;BME280;6867;50.998;4.250;2022-12-05T08:02:56;101624.59;;;6.24;77.80
13593;BME280;6867;50.998;4.250;2022-12-05T08:05:23;101625.97;;;6.29;77.81
13593;BME280;6867;50.998;4.250;2022-12-05T08:07:51;101620.16;;;6.33;78.01
13593;BME280;6867;50.998;4.250;2022-12-05T08:10:17;101623.34;;;6.37;77.47
13593;BME280;6867;50.998;4.250;2022-12-05T08:12:44;101626.75;;;6.21;77.88
13593;BME280;6867;50.998;4.250;2022-12-05T08:15:11;101641.50;;;6.07;78.29
13593;BME280;6867;50.998;4.250;2022-12-05T08:17:37;101642.59;;;6.22;78.41
13593;BME280;6867;50.998;4.250;2022-12-05T08:20:05;101643.81;;;6.28;78.35
13593;BME280;6867;50.998;4.250;2022-12-05T08:22:32;101635.16;;;6.34;78.29
13593;BME280;6867;50.998;4.250;2022-12-05T08:25:00;101636.81;;;6.35;77.59
13593;BME280;6867;50.998;4.250;2022-12-05T08:27:26;101639.50;;;6.35;77.87
13593;BME280;6867;50.998;4.250;2022-12-05T08:29:53;101636.81;;;6.35;78.12
13593;BME280;6867;50.998;4.250;2022-12-05T08:32:20;101637.19;;;6.40;78.08
13593;BME280;6867;50.998;4.250;2022-12-05T08:34:47;101643.09;;;6.52;78.20
13593;BME280;6867;50.998;4.250;2022-12-05T08:37:13;101644.44;;;6.56;77.83
13593;BME280;6867;50.998;4.250;2022-12-05T08:39:40;101648.59;;;6.51;77.75
13593;BME280;6867;50.998;4.250;2022-12-05T08:42:08;101658.81;;;6.63;77.90
13593;BME280;6867;50.998;4.250;2022-12-05T08:44:35;101651.03;;;6.70;77.61
13593;BME280;6867;50.998;4.250;2022-12-05T08:47:02;101649.97;;;6.63;77.37
13593;BME280;6867;50.998;4.250;2022-12-05T08:49:28;101661.53;;;6.71;77.67
13593;BME280;6867;50.998;4.250;2022-12-05T08:51:55;101668.84;;;6.61;78.09
13593;BME280;6867;50.998;4.250;2022-12-05T08:54:21;101669.84;;;6.68;78.03
13593;BME280;6867;50.998;4.250;2022-12-05T08:56:49;101676.69;;;6.63;78.57
13593;BME280;6867;50.998;4.250;2022-12-05T08:59:18;101678.06;;;6.75;78.12
13593;BME280;6867;50.998;4.250;2022-12-05T09:01:45;101672.22;;;6.71;78.07
13593;BME280;6867;50.998;4.250;2022-12-05T09:04:11;101682.25;;;6.78;78.38
13593;BME280;6867;50.998;4.250;2022-12-05T09:06:38;101676.47;;;6.90;78.04
13593;BME280;6867;50.998;4.250;2022-12-05T09:09:07;101682.31;;;7.02;77.76
13593;BME280;6867;50.998;4.250;2022-12-05T09:11:38;101677.34;;;6.99;77.78
13593;BME280;6867;50.998;4.250;2022-12-05T09:14:08;101678.16;;;6.99;77.69
13593;BME280;6867;50.998;4.250;2022-12-05T09:16:37;101672.69;;;7.09;77.62
13593;BME280;6867;50.998;4.250;2022-12-05T09:19:04;101666.34;;;7.18;77.47
13593;BME280;6867;50.998;4.250;2022-12-05T09:21:31;101671.69;;;7.18;77.06
13593;BME280;6867;50.998;4.250;2022-12-05T09:23:59;101676.53;;;7.23;77.53
13593;BME280;6867;50.998;4.250;2022-12-05T09:26:27;101681.72;;;7.16;77.24
13593;BME280;6867;50.998;4.250;2022-12-05T09:28:54;101684.22;;;7.18;76.89
13593;BME280;6867;50.998;4.250;2022-12-05T09:31:24;101678.06;;;7.26;76.85
13593;BME280;6867;50.998;4.250;2022-12-05T09:33:53;101678.88;;;7.18;77.09
13593;BME280;6867;50.998;4.250;2022-12-05T09:36:21;101675.22;;;7.27;77.02
13593;BME280;6867;50.998;4.250;2022-12-05T09:38:48;101690.25;;;7.20;76.85
13593;BME280;6867;50.998;4.250;2022-12-05T09:41:26;101696.22;;;7.14;77.42
13593;BME280;6867;50.998;4.250;2022-12-05T09:44:15;101701.94;;;7.27;77.32
13593;BME280;6867;50.998;4.250;2022-12-05T09:46:51;101689.97;;;7.47;76.75
13593;BME280;6867;50.998;4.250;2022-12-05T09:49:22;101688.97;;;7.40;76.85
13593;BME280;6867;50.998;4.250;2022-12-05T09:51:50;101694.94;;;7.34;76.99
13593;BME280;6867;50.998;4.250;2022-12-05T09:54:19;101694.81;;;7.36;77.14
13593;BME280;6867;50.998;4.250;2022-12-05T09:56:48;101700.53;;;7.57;77.29
13593;BME280;6867;50.998;4.250;2022-12-05T09:59:16;101698.34;;;7.53;76.83
13593;BME280;6867;50.998;4.250;2022-12-05T10:01:51;101696.13;;;7.48;76.81
13593;BME280;6867;50.998;4.250;2022-12-05T10:04:32;101690.06;;;7.21;76.32
13593;BME280;6867;50.998;4.250;2022-12-05T10:07:09;101682.09;;;7.30;76.57
13593;BME280;6867;50.998;4.250;2022-12-05T10:09:51;101681.44;;;7.36;76.42
13593;BME280;6867;50.998;4.250;2022-12-05T10:12:35;101682.94;;;7.38;75.95
13593;BME280;6867;50.998;4.250;2022-12-05T10:15:12;101672.72;;;7.34;76.17
13593;BME280;6867;50.998;4.250;2022-12-05T10:17:41;101658.47;;;7.01;75.58
13593;BME280;6867;50.998;4.250;2022-12-05T10:20:14;101672.69;;;7.09;76.44
13593;BME280;6867;50.998;4.250;2022-12-05T10:22:44;101686.09;;;7.26;76.21
13593;BME280;6867;50.998;4.250;2022-12-05T10:25:16;101689.09;;;7.39;76.22
13593;BME280;6867;50.998;4.250;2022-12-05T10:27:48;101695.47;;;7.46;76.73
13593;BME280;6867;50.998;4.250;2022-12-05T10:30:17;101681.03;;;7.14;76.37
13593;BME280;6867;50.998;4.250;2022-12-05T10:32:54;101681.53;;;7.18;76.07
13593;BME280;6867;50.998;4.250;2022-12-05T10:35:25;101696.47;;;7.37;76.59
13593;BME280;6867;50.998;4.250;2022-12-05T10:37:54;101687.13;;;7.49;76.04
13593;BME280;6867;50.998;4.250;2022-12-05T10:40:24;101678.28;;;7.48;75.90
13593;BME280;6867;50.998;4.250;2022-12-05T10:42:52;101685.06;;;7.18;76.05
13593;BME280;6867;50.998;4.250;2022-12-05T10:45:21;101680.06;;;7.23;76.06
13593;BME280;6867;50.998;4.250;2022-12-05T10:47:52;101685.78;;;7.45;75.79
13593;BME280;6867;50.998;4.250;2022-12-05T10:50:24;101678.75;;;7.28;75.64
13593;BME280;6867;50.998;4.250;2022-12-05T10:52:55;101683.69;;;7.14;76.06
13593;BME280;6867;50.998;4.250;2022-12-05T10:55:27;101690.94;;;7.30;76.10
13593;BME280;6867;50.998;4.250;2022-12-05T10:58:09;101682.75;;;7.23;75.92
13593;BME280;6867;50.998;4.250;2022-12-05T11:00:36;101685.06;;;7.27;75.79
13593;BME280;6867;50.998;4.250;2022-12-05T11:03:23;101691.25;;;7.27;75.79
13593;BME280;6867;50.998;4.250;2022-12-05T11:05:54;101684.44;;;7.41;75.62
13593;BME280;6867;50.998;4.250;2022-12-05T11:08:22;101699.66;;;7.40;75.98
13593;BME280;6867;50.998;4.250;2022-12-05T11:11:00;101696.66;;;7.52;76.73
13593;BME280;6867;50.998;4.250;2022-12-05T11:13:27;101685.94;;;7.43;75.89
13593;BME280;6867;50.998;4.250;2022-12-05T11:15:54;101682.13;;;7.46;76.22
13593;BME280;6867;50.998;4.250;2022-12-05T11:18:27;101688.97;;;7.40;75.67
13593;BME280;6867;50.998;4.250;2022-12-05T11:20:57;101697.50;;;7.60;76.17
13593;BME280;6867;50.998;4.250;2022-12-05T11:23:33;101696.00;;;7.66;76.30
13593;BME280;6867;50.998;4.250;2022-12-05T11:26:00;101698.69;;;7.74;76.28
13593;BME280;6867;50.998;4.250;2022-12-05T11:28:35;101684.63;;;7.72;75.95
13593;BME280;6867;50.998;4.250;2022-12-05T11:31:04;101690.50;;;8.00;76.09
13593;BME280;6867;50.998;4.250;2022-12-05T11:33:33;101691.31;;;8.01;75.75
13593;BME280;6867;50.998;4.250;2022-12-05T11:36:08;101687.81;;;8.08;75.43
13593;BME280;6867;50.998;4.250;2022-12-05T11:38:35;101682.97;;;8.04;75.51
13593;BME280;6867;50.998;4.250;2022-12-05T11:41:13;101686.97;;;8.24;76.04
13593;BME280;6867;50.998;4.250;2022-12-05T11:46:55;101662.84;;;8.48;74.41
13593;BME280;6867;50.998;4.250;2022-12-05T11:49:43;101651.78;;;8.35;74.33
13593;BME280;6867;50.998;4.250;2022-12-05T11:52:20;101662.19;;;8.38;74.31
13593;BME280;6867;50.998;4.250;2022-12-05T11:54:54;101669.69;;;8.51;75.16
13593;BME280;6867;50.998;4.250;2022-12-05T11:57:40;101664.19;;;8.36;74.47
13593;BME280;6867;50.998;4.250;2022-12-05T12:00:20;101674.53;;;8.56;74.02
13593;BME280;6867;50.998;4.250;2022-12-05T12:03:23;101666.50;;;8.47;73.74
13593;BME280;6867;50.998;4.250;2022-12-05T12:06:03;101679.56;;;8.34;74.60
13593;BME280;6867;50.998;4.250;2022-12-05T12:08:42;101661.84;;;8.41;73.89
13593;BME280;6867;50.998;4.250;2022-12-05T12:11:22;101651.16;;;8.41;73.77
13593;BME280;6867;50.998;4.250;2022-12-05T12:14:00;101657.66;;;8.39;74.26
13593;BME280;6867;50.998;4.250;2022-12-05T12:16:34;101651.66;;;8.45;73.74
13593;BME280;6867;50.998;4.250;2022-12-05T12:19:24;101663.72;;;8.24;74.46
13593;BME280;6867;50.998;4.250;2022-12-05T12:22:11;101677.22;;;8.31;74.35
13593;BME280;6867;50.998;4.250;2022-12-05T12:24:55;101668.88;;;8.26;74.45
13593;BME280;6867;50.998;4.250;2022-12-05T12:27:33;101682.78;;;8.38;74.68
13593;BME280;6867;50.998;4.250;2022-12-05T12:30:11;101681.25;;;8.43;74.72
13593;BME280;6867;50.998;4.250;2022-12-05T12:32:44;101675.75;;;8.45;74.22
13593;BME280;6867;50.998;4.250;2022-12-05T12:35:26;101678.94;;;8.40;74.35
13593;BME280;6867;50.998;4.250;2022-12-05T12:38:04;101663.84;;;8.39;74.01
13593;BME280;6867;50.998;4.250;2022-12-05T12:40:44;101668.34;;;8.47;73.58
13593;BME280;6867;50.998;4.250;2022-12-05T12:43:24;101679.59;;;8.42;73.89
13593;BME280;6867;50.998;4.250;2022-12-05T12:46:09;101674.56;;;8.39;74.47
13593;BME280;6867;50.998;4.250;2022-12-05T12:48:49;101690.97;;;8.44;74.29
13593;BME280;6867;50.998;4.250;2022-12-05T12:51:19;101681.91;;;8.54;75.00
13593;BME280;6867;50.998;4.250;2022-12-05T12:54:25;101675.91;;;8.43;75.27
13593;BME280;6867;50.998;4.250;2022-12-05T12:57:06;101672.56;;;8.41;74.41
13593;BME280;6867;50.998;4.250;2022-12-05T12:59:51;101666.91;;;8.20;75.08
13593;BME280;6867;50.998;4.250;2022-12-05T13:02:24;101669.88;;;8.33;74.19
13593;BME280;6867;50.998;4.250;2022-12-05T13:04:55;101663.84;;;8.39;74.43
13593;BME280;6867;50.998;4.250;2022-12-05T13:07:29;101656.16;;;8.44;74.93
13593;BME280;6867;50.998;4.250;2022-12-05T13:10:03;101650.63;;;8.46;74.29
13593;BME280;6867;50.998;4.250;2022-12-05T13:12:36;101642.41;;;8.47;74.32
13593;BME280;6867;50.998;4.250;2022-12-05T13:15:10;101645.75;;;8.50;73.44
13593;BME280;6867;50.998;4.250;2022-12-05T13:17:40;101646.28;;;8.29;74.13
13593;BME280;6867;50.998;4.250;2022-12-05T13:20:13;101643.13;;;8.25;74.39
13593;BME280;6867;50.998;4.250;2022-12-05T13:22:41;101650.03;;;8.03;74.54
13593;BME280;6867;50.998;4.250;2022-12-05T13:25:13;101649.16;;;8.11;74.29
13593;BME280;6867;50.998;4.250;2022-12-05T13:27:52;101655.19;;;8.13;74.20
13593;BME280;6867;50.998;4.250;2022-12-05T13:30:21;101656.38;;;7.94;75.06
13593;BME280;6867;50.998;4.250;2022-12-05T13:32:54;101673.63;;;7.83;75.30